Fairbanks, AK

12:58 PM AKST on December 25, 2014 (GMT -0900)
AKDOT 14th Avenue @ Eielson Street | Change Station
CLOSE
Current Station
Personal Weather Station
Location: Fairbanks, AK
Elevation: 482 ft
Nearby Weather Stations

Elev 482 ft 64.84 °N, 147.71 °W | Updated 37 minutes ago

Mostly Cloudy
Mostly Cloudy
4 °F
Feels Like 4 °F
N
0
Wind Variable Wind from WSW
Gusts 0.0 mph

Today
High -- | Low -- °F
--% Chance of Precip.
Yesterday
High -- | Low -- °F
Precip. -- in
10:58 AM 2:43 PM
Waxing Crescent, 19% visible
Pressure 29.60 in
Visibility 10.0 miles
Clouds Few 4000 ft
Mostly Cloudy 8500 ft
Mostly Cloudy 11000 ft
Windchill 4 °F
Dew Point 1 °F
Humidity 85%
Rainfall -999.00 in
Snow Depth Not available.
UV 0 out of 12
Pollen Not available.
Air Quality Not available.
Flu Activity Not available.
METAR PAFA 252153Z 24004KT 10SM FEW040 BKN085 BKN110 M16/M19 A2956 RMK AO2 SLP024 T11561189

More Conditions Fewer Conditions

Pressure 29.60 in
Visibility 10.0 miles
Clouds Few 4000 ft
Mostly Cloudy 8500 ft
Mostly Cloudy 11000 ft
Windchill 4 °F
Dew Point 1 °F
Humidity 85%
Rainfall -999.00 in
Snow Depth Not available.
UV 0 out of 12
Pollen Not available.
Air Quality Not available.
Flu Activity Not available.
METAR PAFA 252153Z 24004KT 10SM FEW040 BKN085 BKN110 M16/M19 A2956 RMK AO2 SLP024 T11561189

More Conditions Fewer Conditions

10-Day Weather Forecast

Almanac

Astronomy

Dec. 25, 2014 Rise Set
Actual Time
Civil Twilight
Nautical Twilight
Astronomical Twilight
Moon
Length of Visible Light
Length of Day
Tomorrow will be .
, % of the Moon is Illuminated

Today's Extremes

State Highs State Lows

Community

WunderPhotos

Upload Photos

1,780,405 photos uploaded!

WunderBlogs® & News

Nearby

Air Quality

  Air Quality AQ Index Pollutant
Not available.

Snow Depth

Station Depth Elevation

Earthquake Activity

City Distance Mag. Time & Date
Minimum magnitude displayed is 2.5.

Coastal Water Temperatures

Place Temperature

Nearby Weather Stations